createdAt,value
2019-05-19T00:00:46.115Z,56.35
2019-05-19T00:02:49.939Z,56.15
2019-05-19T00:04:53.736Z,55.95
2019-05-19T00:06:57.497Z,55.87
2019-05-19T00:09:01.317Z,55.64
2019-05-19T00:11:05.205Z,55.78
2019-05-19T00:13:09.020Z,56.21
2019-05-19T00:15:12.899Z,56.51
2019-05-19T00:17:16.643Z,56.55
2019-05-19T00:19:26.611Z,56.44
2019-05-19T00:21:25.969Z,56.29
2019-05-19T00:23:29.776Z,56.08
2019-05-19T00:25:34.393Z,55.84
2019-05-19T00:27:38.361Z,55.80
2019-05-19T00:29:42.194Z,55.86
2019-05-19T00:31:46.032Z,56.06
2019-05-19T00:33:49.817Z,56.29
2019-05-19T00:35:53.685Z,56.53
2019-05-19T00:37:57.558Z,56.84
2019-05-19T00:40:01.342Z,56.79
2019-05-19T00:42:06.297Z,57.08
2019-05-19T00:44:10.066Z,57.47
2019-05-19T00:46:13.955Z,57.58
2019-05-19T00:48:17.730Z,57.42
2019-05-19T00:50:21.626Z,57.42
2019-05-19T00:52:25.360Z,57.38
2019-05-19T00:54:29.178Z,57.27
2019-05-19T00:56:33.827Z,57.28
2019-05-19T00:58:40.084Z,57.20
2019-05-19T01:00:43.933Z,57.26
2019-05-19T01:02:47.668Z,57.35
2019-05-19T01:04:51.464Z,57.40
2019-05-19T01:06:55.344Z,57.28
2019-05-19T01:09:00.107Z,57.13
2019-05-19T01:11:04.050Z,57.02
2019-05-19T01:13:07.804Z,56.96
2019-05-19T01:15:11.796Z,57.04
2019-05-19T01:17:15.617Z,57.12
2019-05-19T01:19:19.430Z,57.28
2019-05-19T01:21:23.870Z,57.32
2019-05-19T01:23:27.637Z,57.53
2019-05-19T01:25:31.531Z,57.75
2019-05-19T01:27:35.342Z,58.16
2019-05-19T01:29:39.175Z,58.05
2019-05-19T01:31:43.041Z,58.14
2019-05-19T01:33:46.871Z,58.35
2019-05-19T01:35:50.696Z,58.24
2019-05-19T01:37:56.421Z,58.10
2019-05-19T01:40:00.321Z,58.06
2019-05-19T01:42:04.214Z,58.01
2019-05-19T01:44:08.106Z,58.06
2019-05-19T01:46:11.842Z,58.24
2019-05-19T01:48:15.628Z,58.25
2019-05-19T01:50:20.179Z,58.15
2019-05-19T01:52:23.946Z,57.96
2019-05-19T01:54:27.779Z,58.06
2019-05-19T01:56:31.583Z,58.06
2019-05-19T01:58:35.444Z,58.38
2019-05-19T02:00:39.192Z,58.50
2019-05-19T02:02:43.060Z,58.51
2019-05-19T02:04:46.909Z,58.54
2019-05-19T02:06:50.698Z,58.50
2019-05-19T02:08:54.486Z,58.44
2019-05-19T02:10:58.289Z,58.29
2019-05-19T02:13:05.041Z,58.42
2019-05-19T02:15:08.388Z,58.39
2019-05-19T02:17:12.170Z,58.34
2019-05-19T02:19:16.105Z,58.32
2019-05-19T02:21:19.935Z,58.49
2019-05-19T02:23:23.661Z,58.85
2019-05-19T02:25:27.550Z,59.21
2019-05-19T02:27:31.367Z,59.72
2019-05-19T02:29:35.210Z,60.21
2019-05-19T02:31:38.974Z,60.39
2019-05-19T02:33:42.867Z,60.59
2019-05-19T02:35:49.762Z,60.57
2019-05-19T02:37:53.572Z,60.92
2019-05-19T02:39:57.522Z,61.09
2019-05-19T02:42:04.072Z,61.27
2019-05-19T02:44:08.492Z,61.60
2019-05-19T02:46:12.748Z,61.82
2019-05-19T02:48:18.138Z,61.64
2019-05-19T02:50:22.868Z,61.43
2019-05-19T02:52:29.427Z,61.36
2019-05-19T02:54:34.961Z,61.32
2019-05-19T02:56:40.207Z,61.28
2019-05-19T02:58:44.548Z,61.40
2019-05-19T03:00:48.294Z,61.50
2019-05-19T03:02:52.096Z,61.40
2019-05-19T03:04:55.938Z,61.46
2019-05-19T03:07:00.740Z,61.69
2019-05-19T03:09:05.418Z,61.61
2019-05-19T03:11:09.280Z,61.26
2019-05-19T03:13:13.166Z,61.13
2019-05-19T03:15:17.156Z,60.88
2019-05-19T03:17:20.870Z,60.77
2019-05-19T03:19:24.792Z,60.72
2019-05-19T03:21:28.592Z,60.73
2019-05-19T03:23:32.375Z,60.63
2019-05-19T03:25:36.208Z,60.59
2019-05-19T03:27:40.001Z,60.69
2019-05-19T03:29:48.200Z,60.69
2019-05-19T03:32:12.506Z,60.63
2019-05-19T03:34:15.155Z,60.69
2019-05-19T03:36:18.968Z,60.69
2019-05-19T03:38:22.918Z,60.94
2019-05-19T03:40:27.703Z,61.15
2019-05-19T03:42:31.482Z,61.13
2019-05-19T03:44:35.315Z,61.06
2019-05-19T03:46:39.116Z,61.09
2019-05-19T03:48:42.983Z,60.97
2019-05-19T03:50:47.744Z,61.12
2019-05-19T03:52:51.536Z,61.08
2019-05-19T03:54:55.329Z,61.01
2019-05-19T03:56:59.143Z,60.92
2019-05-19T03:59:02.978Z,60.87
2019-05-19T04:01:06.768Z,60.83
2019-05-19T04:03:10.640Z,60.77
2019-05-19T04:05:15.724Z,60.77
2019-05-19T04:07:19.494Z,60.68
2019-05-19T04:09:23.280Z,60.67
2019-05-19T04:11:27.106Z,60.66
2019-05-19T04:13:30.887Z,60.63
2019-05-19T04:15:34.711Z,60.66
2019-05-19T04:17:38.539Z,60.67
2019-05-19T04:19:42.487Z,60.76
2019-05-19T04:21:49.114Z,60.89
2019-05-19T04:23:51.753Z,61.09
2019-05-19T04:25:56.491Z,61.25
2019-05-19T04:28:00.273Z,61.37
2019-05-19T04:30:04.576Z,61.41
2019-05-19T04:32:08.310Z,61.44
2019-05-19T04:34:12.115Z,61.41
2019-05-19T04:36:17.014Z,61.41
2019-05-19T04:38:20.844Z,61.46
2019-05-19T04:40:24.628Z,61.55
2019-05-19T04:42:28.459Z,61.60
2019-05-19T04:44:32.247Z,61.66
2019-05-19T04:46:36.976Z,61.77
2019-05-19T04:48:40.785Z,61.96
2019-05-19T04:50:44.582Z,62.02
2019-05-19T04:52:48.408Z,62.05
2019-05-19T04:54:52.182Z,62.29
2019-05-19T04:56:55.986Z,62.43
2019-05-19T04:58:59.783Z,62.39
2019-05-19T05:01:03.684Z,62.37
2019-05-19T05:03:07.493Z,62.45
2019-05-19T05:05:12.266Z,62.60
2019-05-19T05:07:17.179Z,62.67
2019-05-19T05:09:20.972Z,62.71
2019-05-19T05:11:25.788Z,62.88
2019-05-19T05:13:29.595Z,63.03
2019-05-19T05:15:33.479Z,63.08
2019-05-19T05:17:37.302Z,63.23
2019-05-19T05:19:41.095Z,63.29
2019-05-19T05:21:45.943Z,63.32
2019-05-19T05:23:49.732Z,63.54
2019-05-19T05:25:53.544Z,63.69
2019-05-19T05:27:57.341Z,63.81
2019-05-19T05:30:01.154Z,63.91
2019-05-19T05:32:05.940Z,63.85
2019-05-19T05:34:09.834Z,63.85
2019-05-19T05:36:13.570Z,63.98
2019-05-19T05:38:17.382Z,64.15
2019-05-19T05:40:21.240Z,64.15
2019-05-19T05:42:27.065Z,64.23
2019-05-19T05:44:31.852Z,64.31
2019-05-19T05:46:35.766Z,64.22
2019-05-19T05:48:40.570Z,64.07
2019-05-19T05:50:44.390Z,63.97
2019-05-19T05:52:48.224Z,63.74
2019-05-19T05:54:52.015Z,63.52
2019-05-19T05:56:55.810Z,63.56
2019-05-19T05:58:59.617Z,63.41
2019-05-19T06:01:03.427Z,63.31
2019-05-19T06:03:07.220Z,63.16
2019-05-19T06:05:11.185Z,63.06
2019-05-19T06:07:14.924Z,63.07
2019-05-19T06:09:18.728Z,63.04
2019-05-19T06:11:22.517Z,63.01
2019-05-19T06:13:26.340Z,62.90
2019-05-19T06:15:30.178Z,62.76
2019-05-19T06:17:33.972Z,62.64
2019-05-19T06:19:39.782Z,62.81
2019-05-19T06:21:43.603Z,62.73
2019-05-19T06:23:47.377Z,62.71
2019-05-19T06:25:51.190Z,62.83
2019-05-19T06:27:55.021Z,62.76
2019-05-19T06:29:58.807Z,62.68
2019-05-19T06:32:09.622Z,62.49
2019-05-19T06:34:14.404Z,62.25
2019-05-19T06:36:18.289Z,61.88
2019-05-19T06:38:22.103Z,61.43
2019-05-19T06:40:26.899Z,61.26
2019-05-19T06:42:30.636Z,61.05
2019-05-19T06:44:34.462Z,60.73
2019-05-19T06:46:38.228Z,60.51
2019-05-19T06:48:42.037Z,60.24
2019-05-19T06:50:47.872Z,59.86
2019-05-19T06:52:51.724Z,59.67
2019-05-19T06:54:55.486Z,59.49
2019-05-19T06:56:59.305Z,59.17
2019-05-19T06:59:03.127Z,58.98
2019-05-19T07:01:06.906Z,58.58
2019-05-19T07:03:10.782Z,58.14
2019-05-19T07:05:15.676Z,57.67
2019-05-19T07:07:19.438Z,57.42
2019-05-19T07:09:23.368Z,57.42
2019-05-19T07:11:28.100Z,57.26
2019-05-19T07:13:32.902Z,57.15
2019-05-19T07:15:36.721Z,57.06
2019-05-19T07:17:40.519Z,56.96
2019-05-19T07:19:44.331Z,56.79
2019-05-19T07:21:48.217Z,56.42
2019-05-19T07:23:53.195Z,55.91
2019-05-19T07:25:56.973Z,55.73
2019-05-19T07:28:00.803Z,55.34
2019-05-19T07:30:05.088Z,54.78
2019-05-19T07:32:08.950Z,54.25
2019-05-19T07:34:13.791Z,54.02
2019-05-19T07:36:17.667Z,53.76
2019-05-19T07:38:21.525Z,53.53
2019-05-19T07:40:26.986Z,52.83
2019-05-19T07:42:31.849Z,52.50
2019-05-19T07:44:35.710Z,52.24
2019-05-19T07:46:40.556Z,51.81
2019-05-19T07:48:44.352Z,51.72
2019-05-19T07:50:49.138Z,51.29
2019-05-19T07:52:53.083Z,51.18
2019-05-19T07:54:57.867Z,50.99
2019-05-19T07:57:01.696Z,50.45
2019-05-19T07:59:07.991Z,50.04
2019-05-19T08:01:11.861Z,49.68
2019-05-19T08:05:18.330Z,49.10
2019-05-19T08:07:22.189Z,48.78
2019-05-19T08:09:25.939Z,48.47
2019-05-19T08:11:29.742Z,48.45
2019-05-19T08:13:33.538Z,48.48
2019-05-19T08:15:37.357Z,48.44
2019-05-19T08:17:41.142Z,48.38
2019-05-19T08:19:45.086Z,48.38
2019-05-19T08:21:49.023Z,48.29
2019-05-19T08:24:00.562Z,48.27
2019-05-19T08:25:58.639Z,47.91
2019-05-19T08:28:08.309Z,48.09
2019-05-19T08:30:08.489Z,47.84
2019-05-19T08:32:12.275Z,47.49
2019-05-19T08:34:16.251Z,45.73
2019-05-19T08:36:20.158Z,44.83
2019-05-19T08:38:23.983Z,44.20
2019-05-19T08:40:27.800Z,43.83
2019-05-19T08:42:31.592Z,43.95
2019-05-19T08:44:35.393Z,43.95
2019-05-19T08:46:39.193Z,44.44
2019-05-19T08:48:43.004Z,44.85
2019-05-19T08:50:46.890Z,43.99
2019-05-19T08:52:50.701Z,44.30
2019-05-19T08:54:54.524Z,44.30
2019-05-19T08:56:58.305Z,43.17
2019-05-19T08:59:02.127Z,43.25
2019-05-19T09:01:05.921Z,43.27
2019-05-19T09:03:09.802Z,43.85
2019-05-19T09:05:13.823Z,43.72
2019-05-19T09:07:17.638Z,43.54
2019-05-19T09:09:21.434Z,43.32
2019-05-19T09:11:25.341Z,43.47
2019-05-19T09:13:29.278Z,43.47
2019-05-19T09:15:33.066Z,43.71
2019-05-19T09:17:36.849Z,43.19
2019-05-19T09:19:40.783Z,42.95
2019-05-19T09:21:44.567Z,42.76
2019-05-19T09:23:48.378Z,42.87
2019-05-19T09:25:52.172Z,42.71
2019-05-19T09:27:55.976Z,42.46
2019-05-19T09:29:59.788Z,42.02
2019-05-19T09:32:03.661Z,42.31
2019-05-19T09:34:07.489Z,41.97
2019-05-19T09:36:11.289Z,41.67
2019-05-19T09:38:15.091Z,41.52
2019-05-19T09:40:19.040Z,41.21
2019-05-19T09:42:22.791Z,41.21
2019-05-19T09:44:26.606Z,41.51
2019-05-19T09:46:30.521Z,41.54
2019-05-19T09:48:34.332Z,41.41
2019-05-19T09:50:38.197Z,40.98
2019-05-19T09:52:42.023Z,41.03
2019-05-19T09:54:46.103Z,40.62
2019-05-19T09:56:49.927Z,40.62
2019-05-19T09:58:53.754Z,40.30
2019-05-19T10:00:57.665Z,40.40
2019-05-19T10:03:01.456Z,40.68
2019-05-19T10:05:06.084Z,40.43
2019-05-19T10:07:10.091Z,40.50
2019-05-19T10:09:22.250Z,40.37
2019-05-19T10:11:55.241Z,39.88
2019-05-19T10:13:59.143Z,39.51
2019-05-19T10:16:03.014Z,38.99
2019-05-19T10:18:07.782Z,38.92
2019-05-19T10:20:14.140Z,38.25
2019-05-19T10:22:18.024Z,37.75
2019-05-19T10:24:21.890Z,37.65
2019-05-19T10:26:26.713Z,37.07
2019-05-19T10:28:30.501Z,36.53
2019-05-19T10:30:34.328Z,36.72
2019-05-19T10:32:39.165Z,35.22
2019-05-19T10:34:42.973Z,34.57
2019-05-19T10:36:46.778Z,34.24
2019-05-19T10:38:50.545Z,33.88
2019-05-19T10:40:54.475Z,32.54
2019-05-19T10:43:00.342Z,32.26
2019-05-19T10:45:05.171Z,32.02
2019-05-19T10:47:08.932Z,31.83
2019-05-19T10:49:12.732Z,31.68
2019-05-19T10:51:16.534Z,31.79
2019-05-19T10:53:20.324Z,31.88
2019-05-19T10:55:35.599Z,32.14
2019-05-19T10:57:29.663Z,32.50
2019-05-19T10:59:33.532Z,32.43
2019-05-19T11:01:37.300Z,31.85
2019-05-19T11:03:41.083Z,31.76
2019-05-19T11:05:44.915Z,31.63
2019-05-19T11:07:48.706Z,31.75
2019-05-19T11:09:52.494Z,31.74
2019-05-19T11:11:56.317Z,31.54
2019-05-19T11:14:00.113Z,31.70
2019-05-19T11:16:03.999Z,31.64
2019-05-19T11:18:07.819Z,31.27
2019-05-19T11:20:12.306Z,31.02
2019-05-19T11:22:16.038Z,30.94
2019-05-19T11:24:19.840Z,31.08
2019-05-19T11:26:23.650Z,30.84
2019-05-19T11:28:27.506Z,30.34
2019-05-19T11:30:32.507Z,29.30
2019-05-19T11:32:36.282Z,29.49
2019-05-19T11:34:40.095Z,29.95
2019-05-19T11:36:43.885Z,29.65
2019-05-19T11:38:47.702Z,29.47
2019-05-19T11:40:51.839Z,29.35
2019-05-19T11:42:56.609Z,29.28
2019-05-19T11:45:00.454Z,28.46
2019-05-19T11:47:04.231Z,28.24
2019-05-19T11:49:08.020Z,27.62
2019-05-19T11:51:11.836Z,27.52
2019-05-19T11:53:15.622Z,27.42
2019-05-19T11:55:19.504Z,27.58
2019-05-19T11:57:23.246Z,27.12
2019-05-19T11:59:27.042Z,26.84
2019-05-19T12:01:30.861Z,27.53
2019-05-19T12:03:34.723Z,28.27
2019-05-19T12:05:39.514Z,27.97
2019-05-19T12:07:43.288Z,28.07
2019-05-19T12:09:48.096Z,28.03
2019-05-19T12:11:52.068Z,28.21
2019-05-19T12:13:55.805Z,27.98
2019-05-19T12:15:59.634Z,27.96
2019-05-19T12:18:03.445Z,28.28
2019-05-19T12:20:07.969Z,28.22
2019-05-19T12:22:11.751Z,28.18
2019-05-19T12:24:15.575Z,27.91
2019-05-19T12:26:23.106Z,28.09
2019-05-19T12:28:24.902Z,28.14
2019-05-19T12:30:28.904Z,27.95
2019-05-19T12:32:32.813Z,27.91
2019-05-19T12:34:36.617Z,27.98
2019-05-19T12:36:40.480Z,28.08
2019-05-19T12:38:44.344Z,28.05
2019-05-19T12:40:48.127Z,28.19
2019-05-19T12:42:51.931Z,28.22
2019-05-19T12:44:55.727Z,28.36
2019-05-19T12:46:59.531Z,28.66
2019-05-19T12:49:03.410Z,28.28
2019-05-19T12:51:07.231Z,28.07
2019-05-19T12:53:11.990Z,28.10
2019-05-19T12:55:18.266Z,28.29
2019-05-19T12:57:22.020Z,28.42
2019-05-19T12:59:25.824Z,28.53
2019-05-19T13:01:29.770Z,28.91
2019-05-19T13:03:33.563Z,28.96
2019-05-19T13:05:37.412Z,29.04
2019-05-19T13:07:41.153Z,28.93
2019-05-19T13:09:45.865Z,28.35
2019-05-19T13:11:49.665Z,27.22
2019-05-19T13:13:53.485Z,26.06
2019-05-19T13:15:57.274Z,25.55
2019-05-19T13:18:01.100Z,25.31
2019-05-19T13:20:05.291Z,25.08
2019-05-19T13:22:09.008Z,24.83
2019-05-19T13:24:12.799Z,24.38
2019-05-19T13:26:16.590Z,24.07
2019-05-19T13:28:20.416Z,24.15
2019-05-19T13:30:24.215Z,25.03
2019-05-19T13:32:28.029Z,26.14
2019-05-19T13:34:31.833Z,27.93
2019-05-19T13:36:35.628Z,28.72
2019-05-19T13:38:39.439Z,29.86
2019-05-19T13:40:44.237Z,29.98
2019-05-19T13:42:48.069Z,31.35
2019-05-19T13:44:51.847Z,32.66
2019-05-19T13:46:55.666Z,34.04
2019-05-19T13:48:59.554Z,35.26
2019-05-19T13:51:03.459Z,36.24
2019-05-19T13:53:07.316Z,36.22
2019-05-19T13:55:11.325Z,36.23
2019-05-19T13:57:15.068Z,36.25
2019-05-19T13:59:18.903Z,36.25
2019-05-19T14:01:28.674Z,36.38
2019-05-19T14:03:29.271Z,36.48
2019-05-19T14:05:33.075Z,36.42
2019-05-19T14:07:36.852Z,36.16
2019-05-19T14:09:40.674Z,35.75
2019-05-19T14:11:44.513Z,35.16
2019-05-19T14:13:48.290Z,34.98
2019-05-19T14:15:53.090Z,34.99
2019-05-19T14:17:56.897Z,34.51
2019-05-19T14:20:00.700Z,34.13
2019-05-19T14:22:04.513Z,34.23
2019-05-19T14:24:08.338Z,34.32
2019-05-19T14:26:12.192Z,34.36
2019-05-19T14:28:15.926Z,34.44
2019-05-19T14:30:20.174Z,34.58
2019-05-19T14:32:23.938Z,34.65
2019-05-19T14:34:27.735Z,35.05
2019-05-19T14:36:31.528Z,35.10
2019-05-19T14:38:36.361Z,35.17
2019-05-19T14:40:40.209Z,34.89
2019-05-19T14:42:51.302Z,34.96
2019-05-19T14:44:55.062Z,35.01
2019-05-19T14:46:58.842Z,34.75
2019-05-19T14:49:02.805Z,34.51
2019-05-19T14:51:06.561Z,34.35
2019-05-19T14:53:10.353Z,33.94
2019-05-19T14:55:15.137Z,33.87
2019-05-19T14:57:18.882Z,33.89
2019-05-19T14:59:22.701Z,33.99
2019-05-19T15:01:26.574Z,33.11
2019-05-19T15:03:30.406Z,32.73
2019-05-19T15:05:34.207Z,32.64
2019-05-19T15:07:38.003Z,32.74
2019-05-19T15:09:41.827Z,32.84
2019-05-19T15:11:45.610Z,32.58
2019-05-19T15:13:49.405Z,32.30
2019-05-19T15:15:53.216Z,31.84
2019-05-19T15:17:57.012Z,31.91
2019-05-19T15:20:00.825Z,32.16
2019-05-19T15:22:04.774Z,31.92
2019-05-19T15:24:08.542Z,32.05
2019-05-19T15:26:12.327Z,32.05
2019-05-19T15:28:16.216Z,31.91
2019-05-19T15:30:20.199Z,31.50
2019-05-19T15:32:24.002Z,31.42
2019-05-19T15:34:27.758Z,31.86
2019-05-19T15:36:32.641Z,31.62
2019-05-19T15:38:36.377Z,31.50
2019-05-19T15:40:40.207Z,31.31
2019-05-19T15:42:43.982Z,31.37
2019-05-19T15:44:47.797Z,31.32
2019-05-19T15:46:51.678Z,31.43
2019-05-19T15:48:55.509Z,31.72
2019-05-19T15:51:00.327Z,31.63
2019-05-19T15:53:04.318Z,31.53
2019-05-19T15:55:08.291Z,31.12
2019-05-19T15:57:12.142Z,30.94
2019-05-19T15:59:16.044Z,31.01
2019-05-19T16:01:19.864Z,31.04
2019-05-19T16:03:23.653Z,31.48
2019-05-19T16:05:27.456Z,31.58
2019-05-19T16:07:31.269Z,31.71
2019-05-19T16:09:35.061Z,31.74
2019-05-19T16:11:38.879Z,31.68
2019-05-19T16:13:42.703Z,31.53
2019-05-19T16:15:46.516Z,31.60
2019-05-19T16:17:51.304Z,31.66
2019-05-19T16:19:55.124Z,31.68
2019-05-19T16:21:58.899Z,32.04
2019-05-19T16:24:02.720Z,31.99
2019-05-19T16:26:06.513Z,32.01
2019-05-19T16:28:10.316Z,32.00
2019-05-19T16:30:14.278Z,31.94
2019-05-19T16:32:18.022Z,32.14
2019-05-19T16:34:21.871Z,32.20
2019-05-19T16:36:26.750Z,32.24
2019-05-19T16:38:30.555Z,32.28
2019-05-19T16:40:34.447Z,32.31
2019-05-19T16:42:38.277Z,32.41
2019-05-19T16:44:42.076Z,32.65
2019-05-19T16:46:45.945Z,32.96
2019-05-19T16:48:49.774Z,33.58
2019-05-19T16:50:53.591Z,34.00
2019-05-19T16:52:57.455Z,34.57
2019-05-19T16:55:19.325Z,35.07
2019-05-19T16:57:23.135Z,35.42
2019-05-19T16:59:26.922Z,35.77
2019-05-19T17:01:30.743Z,36.08
2019-05-19T17:03:34.521Z,36.27
2019-05-19T17:05:38.348Z,36.31
2019-05-19T17:07:42.123Z,36.04
2019-05-19T17:09:45.959Z,35.83
2019-05-19T17:11:49.739Z,35.75
2019-05-19T17:13:53.551Z,35.49
2019-05-19T17:15:57.366Z,35.24
2019-05-19T17:18:01.134Z,35.24
2019-05-19T17:20:05.490Z,35.44
2019-05-19T17:22:09.273Z,35.55
2019-05-19T17:24:13.215Z,35.62
2019-05-19T17:26:16.976Z,35.84
2019-05-19T17:28:20.771Z,35.99
2019-05-19T17:30:24.936Z,36.46
2019-05-19T17:32:28.686Z,36.91
2019-05-19T17:34:32.504Z,37.27
2019-05-19T17:36:36.303Z,37.56
2019-05-19T17:38:40.111Z,37.77
2019-05-19T17:40:43.915Z,38.08
2019-05-19T17:42:47.779Z,38.41
2019-05-19T17:44:51.517Z,38.75
2019-05-19T17:46:55.336Z,39.08
2019-05-19T17:48:59.111Z,39.19
2019-05-19T17:51:02.998Z,39.45
2019-05-19T17:53:07.221Z,39.70
2019-05-19T17:55:11.683Z,39.97
2019-05-19T17:57:15.677Z,40.10
2019-05-19T17:59:20.565Z,40.26
2019-05-19T18:01:24.429Z,40.31
2019-05-19T18:03:28.729Z,40.64
2019-05-19T18:05:32.662Z,41.12
2019-05-19T18:07:36.521Z,41.60
2019-05-19T18:09:41.443Z,42.54
2019-05-19T18:11:45.412Z,43.67
2019-05-19T18:13:49.156Z,45.35
2019-05-19T18:15:53.002Z,46.90
2019-05-19T18:17:57.874Z,46.94
2019-05-19T18:20:01.699Z,47.22
2019-05-19T18:22:05.656Z,47.23
2019-05-19T18:24:09.399Z,47.08
2019-05-19T18:26:13.244Z,47.06
2019-05-19T18:28:17.006Z,47.04
2019-05-19T18:30:20.966Z,46.83
2019-05-19T18:32:25.758Z,46.80
2019-05-19T18:34:29.541Z,47.04
2019-05-19T18:36:33.448Z,47.21
2019-05-19T18:38:37.323Z,47.47
2019-05-19T18:40:41.049Z,48.00
2019-05-19T18:42:44.873Z,48.39
2019-05-19T18:44:48.668Z,49.53
2019-05-19T18:46:52.470Z,49.03
2019-05-19T18:48:56.265Z,48.81
2019-05-19T18:51:00.439Z,48.88
2019-05-19T18:53:04.270Z,49.08
2019-05-19T18:55:08.635Z,49.25
2019-05-19T18:57:14.540Z,49.59
2019-05-19T18:59:18.395Z,50.12
2019-05-19T19:01:22.219Z,50.03
2019-05-19T19:03:26.354Z,49.97
2019-05-19T19:05:30.170Z,49.93
2019-05-19T19:07:51.756Z,49.87
2019-05-19T19:09:55.518Z,49.63
2019-05-19T19:11:59.284Z,49.68
2019-05-19T19:14:03.109Z,49.79
2019-05-19T19:16:06.975Z,49.79
2019-05-19T19:18:10.737Z,49.67
2019-05-19T19:20:14.802Z,49.79
2019-05-19T19:22:19.569Z,49.86
2019-05-19T19:24:23.354Z,49.80
2019-05-19T19:26:27.134Z,49.76
2019-05-19T19:28:30.970Z,49.72
2019-05-19T19:30:34.835Z,49.90
2019-05-19T19:32:38.671Z,49.97
2019-05-19T19:34:42.483Z,50.22
2019-05-19T19:36:46.266Z,50.08
2019-05-19T19:38:50.078Z,49.97
2019-05-19T19:40:54.474Z,50.37
2019-05-19T19:43:00.500Z,50.98
2019-05-19T19:45:04.666Z,50.76
2019-05-19T19:47:08.447Z,50.57
2019-05-19T19:49:12.293Z,50.46
2019-05-19T19:51:16.068Z,50.27
2019-05-19T19:53:19.861Z,49.36
2019-05-19T19:55:23.697Z,49.00
2019-05-19T19:57:27.539Z,49.25
2019-05-19T19:59:31.298Z,49.75
2019-05-19T20:01:35.100Z,50.00
2019-05-19T20:03:40.392Z,50.44
2019-05-19T20:05:44.459Z,50.76
2019-05-19T20:07:48.385Z,51.10
2019-05-19T20:09:54.272Z,51.18
2019-05-19T20:11:58.179Z,51.30
2019-05-19T20:14:02.267Z,51.65
2019-05-19T20:16:05.989Z,51.65
2019-05-19T20:18:09.875Z,51.83
2019-05-19T20:20:13.752Z,52.20
2019-05-19T20:22:17.517Z,52.54
2019-05-19T20:24:21.360Z,52.52
2019-05-19T20:26:25.182Z,52.43
2019-05-19T20:28:28.917Z,52.28
2019-05-19T20:30:36.104Z,52.34
2019-05-19T20:32:38.359Z,52.34
2019-05-19T20:34:42.169Z,52.29
2019-05-19T20:36:45.970Z,52.43
2019-05-19T20:38:49.881Z,52.82
2019-05-19T20:40:53.678Z,53.04
2019-05-19T20:42:57.556Z,53.10
2019-05-19T20:45:01.308Z,53.50
2019-05-19T20:47:05.156Z,53.75
2019-05-19T20:49:08.886Z,54.14
2019-05-19T20:51:12.687Z,54.14
2019-05-19T20:53:16.495Z,53.96
2019-05-19T20:55:21.033Z,54.13
2019-05-19T20:57:25.918Z,54.20
2019-05-19T20:59:29.663Z,54.20
2019-05-19T21:01:33.460Z,54.85
2019-05-19T21:03:37.252Z,54.85
2019-05-19T21:05:41.113Z,54.92
2019-05-19T21:07:44.868Z,55.02
2019-05-19T21:09:48.687Z,55.39
2019-05-19T21:11:52.543Z,55.39
2019-05-19T21:13:56.385Z,55.67
2019-05-19T21:16:00.254Z,55.54
2019-05-19T21:18:04.228Z,55.41
2019-05-19T21:20:08.591Z,55.62
2019-05-19T21:22:12.402Z,55.62
2019-05-19T21:24:16.205Z,55.43
2019-05-19T21:26:20.087Z,55.28
2019-05-19T21:28:23.815Z,55.19
2019-05-19T21:30:27.644Z,55.23
2019-05-19T21:32:31.418Z,55.58
2019-05-19T21:34:35.248Z,55.87
2019-05-19T21:36:40.083Z,55.95
2019-05-19T21:38:43.879Z,56.11
2019-05-19T21:40:47.668Z,56.66
2019-05-19T21:42:51.469Z,56.66
2019-05-19T21:44:55.289Z,56.88
2019-05-19T21:46:59.074Z,57.36
2019-05-19T21:49:02.866Z,57.36
2019-05-19T21:51:06.676Z,57.39
2019-05-19T21:53:10.818Z,57.44
2019-05-19T21:55:14.696Z,57.49
2019-05-19T21:57:18.500Z,57.31
2019-05-19T21:59:23.315Z,57.10
2019-05-19T22:01:27.276Z,57.06
2019-05-19T22:03:33.067Z,57.26
2019-05-19T22:05:51.210Z,57.34
2019-05-19T22:08:13.785Z,57.49
2019-05-19T22:10:17.720Z,57.63
2019-05-19T22:12:22.492Z,57.44
2019-05-19T22:14:26.293Z,57.34
2019-05-19T22:16:30.107Z,57.31
2019-05-19T22:18:33.995Z,57.38
2019-05-19T22:20:37.833Z,57.59
2019-05-19T22:22:41.608Z,57.68
2019-05-19T22:24:45.497Z,57.70
2019-05-19T22:26:49.339Z,57.86
2019-05-19T22:28:53.127Z,57.98
2019-05-19T22:30:56.929Z,58.00
2019-05-19T22:33:00.723Z,58.08
2019-05-19T22:35:04.790Z,58.25
2019-05-19T22:37:08.625Z,58.28
2019-05-19T22:39:12.577Z,58.52
2019-05-19T22:41:16.358Z,58.61
2019-05-19T22:43:20.170Z,58.65
2019-05-19T22:45:24.068Z,58.63
2019-05-19T22:47:27.948Z,58.72
2019-05-19T22:49:50.901Z,58.78
2019-05-19T22:51:54.795Z,58.82
2019-05-19T22:53:58.621Z,58.80
2019-05-19T22:56:02.461Z,58.86
2019-05-19T22:58:06.225Z,58.90
2019-05-19T23:00:10.682Z,58.85
2019-05-19T23:02:14.469Z,58.95
2019-05-19T23:04:18.240Z,59.08
2019-05-19T23:06:22.075Z,59.18
2019-05-19T23:08:25.928Z,59.16
2019-05-19T23:10:29.857Z,59.35
2019-05-19T23:12:33.675Z,59.43
2019-05-19T23:14:37.472Z,59.52
2019-05-19T23:16:41.283Z,59.65
2019-05-19T23:18:45.069Z,59.85
2019-05-19T23:20:48.891Z,60.03
2019-05-19T23:22:53.005Z,60.07
2019-05-19T23:24:57.341Z,60.19
2019-05-19T23:27:01.133Z,60.25
2019-05-19T23:29:04.990Z,60.44
2019-05-19T23:31:08.838Z,60.61
2019-05-19T23:33:12.628Z,60.80
2019-05-19T23:35:16.575Z,60.99
2019-05-19T23:37:20.340Z,61.12
2019-05-19T23:39:24.131Z,61.26
2019-05-19T23:41:27.947Z,61.50
2019-05-19T23:43:31.736Z,61.62
2019-05-19T23:45:35.545Z,61.67
2019-05-19T23:47:39.352Z,61.83
2019-05-19T23:49:43.151Z,61.96
2019-05-19T23:51:46.960Z,62.02
2019-05-19T23:53:50.761Z,62.11
2019-05-19T23:55:54.563Z,62.18
2019-05-19T23:57:58.345Z,62.19
